Time;durP1;ratioP1;P1;durP2;ratioP2;P2;SDS_P1;SDS_P2;PMS_P1;PMS_P2;Temp;Humidity;BMP_temperature;BMP_pressure;BME280_temperature;BME280_humidity;BME280_pressure;Samples;Min_cycle;Max_cycle;Signal;HPM_P1;HPM_P2
2022/02/28 00:01:22;;;;;;;6.03;4.67;;;7.70;1.00;;;;;;5081717;28;20965;-76
2022/02/28 00:03:53;;;;;;;5.43;3.70;;;7.70;1.00;;;;;;5083203;28;20564;-76
2022/02/28 00:06:22;;;;;;;7.17;4.00;;;7.70;1.00;;;;;;5082788;28;20535;-78
2022/02/28 00:08:50;;;;;;;6.40;4.90;;;7.70;1.00;;;;;;5080882;28;20439;-76
2022/02/28 00:11:19;;;;;;;4.07;3.67;;;7.70;1.00;;;;;;5080840;28;20211;-78
2022/02/28 00:13:47;;;;;;;3.23;2.90;;;7.70;1.00;;;;;;5080705;28;20559;-78
2022/02/28 00:16:15;;;;;;;9.90;3.97;;;8.00;1.00;;;;;;5082821;28;20480;-77
2022/02/28 00:18:44;;;;;;;3.27;2.97;;;7.80;1.00;;;;;;5076676;28;20739;-78
2022/02/28 00:21:13;;;;;;;5.10;2.97;;;7.80;1.00;;;;;;5079937;28;20960;-77
2022/02/28 00:23:41;;;;;;;7.70;3.80;;;7.80;1.00;;;;;;5083958;28;20544;-77
2022/02/28 00:26:10;;;;;;;5.10;3.27;;;7.80;1.00;;;;;;5084125;28;20462;-77
2022/02/28 00:28:38;;;;;;;5.40;3.50;;;7.80;1.00;;;;;;5080735;28;20443;-78
2022/02/28 00:31:06;;;;;;;7.07;4.53;;;7.60;1.00;;;;;;5079577;28;20445;-77
2022/02/28 00:33:35;;;;;;;4.83;3.93;;;7.60;1.00;;;;;;5081208;28;20255;-79
2022/02/28 00:36:04;;;;;;;8.60;4.10;;;7.70;1.00;;;;;;5088148;28;20448;-78
2022/02/28 00:38:34;;;;;;;5.40;3.90;;;7.50;1.00;;;;;;5078446;28;20476;-78
2022/02/28 00:41:03;;;;;;;7.10;3.60;;;7.50;1.00;;;;;;5084289;28;20543;-77
2022/02/28 00:43:31;;;;;;;8.20;3.60;;;7.40;1.00;;;;;;5084501;28;20982;-77
2022/02/28 00:45:59;;;;;;;5.87;4.00;;;7.30;1.00;;;;;;5085467;28;20460;-78
2022/02/28 00:48:28;;;;;;;6.50;3.97;;;7.50;1.00;;;;;;5081178;28;20466;-79
2022/02/28 00:50:56;;;;;;;5.03;4.23;;;7.30;1.00;;;;;;5083405;28;20470;-77
2022/02/28 00:53:24;;;;;;;6.10;4.00;;;7.30;1.00;;;;;;5081353;28;20462;-80
2022/02/28 00:55:53;;;;;;;5.80;4.00;;;7.20;1.00;;;;;;5081086;28;20448;-77
2022/02/28 00:58:22;;;;;;;5.37;3.93;;;7.30;1.00;;;;;;5079412;28;20454;-78
2022/02/28 01:00:51;;;;;;;4.40;3.80;;;7.10;1.00;;;;;;5076265;28;20780;-77
2022/02/28 01:03:19;;;;;;;5.20;4.00;;;7.00;1.00;;;;;;5079665;28;20512;-77
2022/02/28 01:05:48;;;;;;;4.90;3.73;;;6.90;1.00;;;;;;5082982;28;21267;-77
2022/02/28 01:08:16;;;;;;;9.00;5.13;;;6.80;1.00;;;;;;5082762;28;20452;-78
2022/02/28 01:10:46;;;;;;;5.50;4.00;;;6.80;1.00;;;;;;5083979;28;20464;-78
2022/02/28 01:13:16;;;;;;;7.10;4.27;;;6.70;1.00;;;;;;5081956;28;20496;-77
2022/02/28 01:15:45;;;;;;;7.10;3.90;;;6.60;1.00;;;;;;5082864;28;20455;-78
2022/02/28 01:18:14;;;;;;;6.73;4.10;;;6.70;1.00;;;;;;5078352;28;20470;-77
2022/02/28 01:20:42;;;;;;;6.77;4.77;;;6.60;1.00;;;;;;5086264;28;20476;-78
2022/02/28 01:23:11;;;;;;;6.00;4.33;;;6.70;1.00;;;;;;5083015;28;21232;-78
2022/02/28 01:25:39;;;;;;;5.03;3.90;;;6.60;1.00;;;;;;5082531;28;21078;-78
2022/02/28 01:28:07;;;;;;;6.83;4.43;;;6.60;1.00;;;;;;5081197;28;20523;-78
2022/02/28 01:30:37;;;;;;;4.73;4.23;;;6.70;1.00;;;;;;5083446;28;20442;-75
2022/02/28 01:33:05;;;;;;;6.13;3.73;;;6.80;1.00;;;;;;5079478;28;20447;-77
2022/02/28 01:35:34;;;;;;;6.57;4.30;;;6.60;1.00;;;;;;5084438;28;21031;-76
2022/02/28 01:38:02;;;;;;;7.33;4.67;;;6.60;1.00;;;;;;5083554;28;20949;-78
2022/02/28 01:40:31;;;;;;;8.90;4.30;;;6.60;1.00;;;;;;5072247;28;20482;-78
2022/02/28 01:42:59;;;;;;;8.17;5.17;;;6.40;1.00;;;;;;5079056;28;20519;-75
2022/02/28 01:45:27;;;;;;;5.23;4.40;;;6.40;1.00;;;;;;5081313;28;20482;-77
2022/02/28 01:47:59;;;;;;;9.20;4.40;;;6.50;1.00;;;;;;5080033;28;20510;-77
2022/02/28 01:50:27;;;;;;;10.80;4.90;;;6.40;1.00;;;;;;5081503;28;21020;-77
2022/02/28 01:52:56;;;;;;;9.40;5.37;;;6.40;1.00;;;;;;5083412;28;20461;-77
2022/02/28 01:55:26;;;;;;;7.43;4.77;;;6.40;1.00;;;;;;5078890;28;20462;-76
2022/02/28 01:57:54;;;;;;;6.57;4.13;;;6.40;1.00;;;;;;5082264;28;20466;-77
2022/02/28 02:00:25;;;;;;;6.83;4.47;;;6.40;1.00;;;;;;5082312;28;20909;-77
2022/02/28 02:02:53;;;;;;;5.47;3.90;;;6.40;1.00;;;;;;5074851;28;20456;-78
2022/02/28 02:05:23;;;;;;;5.47;4.67;;;6.40;1.00;;;;;;5078092;28;20916;-77
2022/02/28 02:07:52;;;;;;;5.97;4.03;;;6.40;1.00;;;;;;5080308;28;20474;-77
2022/02/28 02:10:20;;;;;;;5.10;4.27;;;6.30;1.00;;;;;;5081384;28;20546;-77
2022/02/28 02:12:50;;;;;;;5.80;4.90;;;6.30;1.00;;;;;;5085870;28;20461;-77
2022/02/28 02:15:18;;;;;;;9.30;5.00;;;6.30;1.00;;;;;;5081940;28;20468;-78
2022/02/28 02:17:46;;;;;;;6.27;4.27;;;6.30;1.00;;;;;;5079768;28;20447;-78
2022/02/28 02:20:34;;;;;;;8.00;4.80;;;6.40;1.00;;;;;;5079286;28;20488;-77
2022/02/28 02:23:04;;;;;;;6.43;4.13;;;6.10;1.00;;;;;;5083257;28;21028;-79
2022/02/28 02:25:34;;;;;;;7.20;5.10;;;6.10;1.00;;;;;;5079274;28;20470;-78
2022/02/28 02:28:03;;;;;;;6.70;4.77;;;6.20;1.00;;;;;;5086563;28;20475;-79
2022/02/28 02:30:32;;;;;;;5.40;4.50;;;6.00;1.00;;;;;;5086643;28;20883;-78
2022/02/28 02:33:00;;;;;;;10.60;5.70;;;6.00;1.00;;;;;;5088915;27;20541;-77
2022/02/28 02:35:29;;;;;;;5.93;4.53;;;6.00;1.00;;;;;;5084083;28;20506;-77
2022/02/28 02:37:59;;;;;;;7.13;3.97;;;6.00;1.00;;;;;;5082003;28;20463;-77
2022/02/28 02:40:27;;;;;;;4.47;3.70;;;5.90;1.00;;;;;;5085436;28;20490;-78
2022/02/28 02:42:55;;;;;;;6.93;4.73;;;5.90;1.00;;;;;;5090407;28;20451;-78
2022/02/28 02:45:23;;;;;;;6.00;4.10;;;5.90;1.00;;;;;;5084734;28;20473;-78
2022/02/28 02:47:51;;;;;;;7.33;3.73;;;5.90;1.00;;;;;;5085512;28;20465;-77
2022/02/28 02:50:19;;;;;;;6.07;4.20;;;5.90;1.00;;;;;;5089647;28;20454;-77
2022/02/28 02:52:48;;;;;;;5.23;4.20;;;6.00;1.00;;;;;;5086545;28;20519;-77
2022/02/28 02:55:18;;;;;;;5.93;4.13;;;5.90;1.00;;;;;;5085067;28;20476;-79
2022/02/28 02:57:47;;;;;;;7.30;4.63;;;5.90;1.00;;;;;;5085196;28;20453;-77
2022/02/28 03:00:16;;;;;;;7.53;4.50;;;5.80;1.00;;;;;;5086881;28;20466;-77
2022/02/28 03:02:44;;;;;;;6.43;4.63;;;5.80;1.00;;;;;;5084891;28;20449;-78
2022/02/28 03:05:12;;;;;;;3.67;3.30;;;5.80;1.00;;;;;;5087501;28;20888;-77
2022/02/28 03:07:41;;;;;;;7.60;4.23;;;5.50;1.00;;;;;;5084121;28;20803;-77
2022/02/28 03:10:09;;;;;;;5.30;4.10;;;5.60;1.00;;;;;;5079972;28;21020;-77
2022/02/28 03:12:39;;;;;;;7.37;4.73;;;5.60;1.00;;;;;;5081185;28;20946;-77
2022/02/28 03:15:08;;;;;;;7.07;3.90;;;5.60;1.00;;;;;;5088966;28;20471;-77
2022/02/28 03:17:36;;;;;;;5.33;3.50;;;5.60;1.00;;;;;;5086570;28;20789;-79
2022/02/28 03:20:06;;;;;;;7.90;4.70;;;5.60;1.00;;;;;;5089073;28;20485;-77
2022/02/28 03:22:34;;;;;;;5.83;5.20;;;5.50;1.00;;;;;;5080733;28;20446;-77
2022/02/28 03:25:02;;;;;;;8.33;5.10;;;5.50;1.00;;;;;;5088849;28;21004;-78
2022/02/28 03:27:31;;;;;;;8.20;4.93;;;5.30;1.00;;;;;;5084259;28;20445;-75
2022/02/28 03:30:00;;;;;;;8.97;4.63;;;5.30;1.00;;;;;;5087307;28;20455;-77
2022/02/28 03:32:29;;;;;;;7.90;4.90;;;5.50;1.00;;;;;;5085964;28;20501;-78
2022/02/28 03:34:57;;;;;;;4.00;3.53;;;5.40;1.00;;;;;;5086586;28;20469;-78
2022/02/28 03:37:25;;;;;;;6.90;4.47;;;5.30;1.00;;;;;;5088620;28;20452;-79
2022/02/28 03:39:55;;;;;;;5.10;3.67;;;5.20;1.00;;;;;;5085661;28;20462;-78
2022/02/28 03:42:23;;;;;;;3.97;3.20;;;5.20;1.00;;;;;;5087136;28;20528;-77
2022/02/28 03:44:51;;;;;;;6.33;4.43;;;5.20;1.00;;;;;;5082873;28;20476;-77
2022/02/28 03:47:20;;;;;;;4.57;3.77;;;5.20;1.00;;;;;;5082518;28;20526;-79
2022/02/28 03:49:49;;;;;;;4.00;3.10;;;5.30;1.00;;;;;;5080623;28;20462;-77
2022/02/28 03:52:17;;;;;;;8.03;4.03;;;5.30;1.00;;;;;;5083536;28;20450;-77
2022/02/28 03:54:45;;;;;;;8.00;3.97;;;5.50;1.00;;;;;;5077978;28;20482;-77
2022/02/28 03:57:13;;;;;;;6.20;4.37;;;5.30;1.00;;;;;;5083457;28;20959;-78
2022/02/28 03:59:44;;;;;;;5.83;3.77;;;5.30;1.00;;;;;;5081499;28;20550;-78
2022/02/28 04:02:12;;;;;;;5.00;4.20;;;5.30;1.00;;;;;;5081893;28;20485;-77
2022/02/28 04:04:42;;;;;;;4.70;4.00;;;5.20;1.00;;;;;;5083133;28;20557;-77
2022/02/28 04:07:11;;;;;;;4.97;3.97;;;5.20;1.00;;;;;;5083471;28;20455;-77
2022/02/28 04:09:40;;;;;;;8.87;4.33;;;5.30;1.00;;;;;;5083792;28;20454;-77
2022/02/28 04:12:09;;;;;;;6.63;4.60;;;5.20;1.00;;;;;;5080497;28;20443;-77
2022/02/28 04:14:41;;;;;;;7.70;4.63;;;5.30;1.00;;;;;;5074390;28;20468;-77
2022/02/28 04:17:10;;;;;;;10.20;4.90;;;5.20;1.00;;;;;;5084020;28;20521;-76
2022/02/28 04:19:38;;;;;;;5.50;3.70;;;5.20;1.00;;;;;;5080962;28;20468;-77
2022/02/28 04:22:08;;;;;;;4.53;3.67;;;5.20;1.00;;;;;;5072062;28;20486;-78
2022/02/28 04:24:36;;;;;;;7.40;4.53;;;5.20;1.00;;;;;;5077387;28;20462;-79
2022/02/28 04:27:04;;;;;;;8.20;3.87;;;5.40;1.00;;;;;;5079524;28;20462;-78
2022/02/28 04:29:33;;;;;;;4.73;3.33;;;5.20;1.00;;;;;;5082404;28;20461;-78
2022/02/28 04:32:01;;;;;;;8.33;4.40;;;5.20;1.00;;;;;;5080843;28;20456;-78
2022/02/28 04:34:30;;;;;;;5.87;3.80;;;5.10;1.00;;;;;;5077092;28;20479;-77
2022/02/28 04:36:58;;;;;;;8.20;4.70;;;5.00;1.00;;;;;;5079323;28;20512;-78
2022/02/28 04:39:27;;;;;;;6.60;4.23;;;4.90;1.00;;;;;;5077556;28;20497;-78
2022/02/28 04:41:56;;;;;;;4.03;3.63;;;4.80;1.00;;;;;;5080449;28;20470;-78
2022/02/28 04:44:24;;;;;;;5.83;3.87;;;4.70;1.00;;;;;;5075730;28;21013;-78
2022/02/28 04:46:55;;;;;;;7.53;4.43;;;4.90;1.00;;;;;;5084203;28;20452;-77
2022/02/28 04:49:23;;;;;;;5.27;4.00;;;5.20;1.00;;;;;;5080407;28;20462;-76
2022/02/28 04:51:51;;;;;;;6.57;5.03;;;5.00;1.00;;;;;;5078107;28;20450;-77
2022/02/28 04:54:20;;;;;;;5.40;4.67;;;5.20;1.00;;;;;;5080403;28;20469;-77
2022/02/28 04:56:49;;;;;;;5.83;4.10;;;5.00;1.00;;;;;;5078392;28;20470;-77
2022/02/28 04:59:17;;;;;;;6.40;4.30;;;5.00;1.00;;;;;;5081809;28;20446;-77
2022/02/28 05:01:46;;;;;;;6.53;4.67;;;4.80;1.00;;;;;;5075472;28;20469;-78
2022/02/28 05:04:14;;;;;;;6.53;4.87;;;4.80;1.00;;;;;;5082331;28;20467;-77
2022/02/28 05:06:42;;;;;;;5.73;4.07;;;4.60;1.00;;;;;;5079266;28;20492;-77
2022/02/28 05:09:10;;;;;;;10.33;4.30;;;4.60;1.00;;;;;;5079923;28;20822;-76
2022/02/28 05:11:39;;;;;;;8.93;4.60;;;4.80;1.00;;;;;;5080863;28;20459;-77
2022/02/28 05:14:09;;;;;;;4.73;3.43;;;4.90;1.00;;;;;;5076371;28;22917;-77
2022/02/28 05:16:37;;;;;;;10.70;4.30;;;4.90;1.00;;;;;;5079233;28;20455;-80
2022/02/28 05:19:06;;;;;;;4.87;3.73;;;4.80;1.00;;;;;;5077269;28;20462;-78
2022/02/28 05:21:34;;;;;;;5.03;4.53;;;4.80;1.00;;;;;;5077588;28;20482;-77
2022/02/28 05:24:03;;;;;;;5.97;4.33;;;4.60;1.00;;;;;;5087539;28;20486;-74
2022/02/28 05:26:31;;;;;;;4.47;3.37;;;4.70;1.00;;;;;;5083772;28;21037;-77
2022/02/28 05:28:59;;;;;;;4.37;3.67;;;4.60;1.00;;;;;;5081924;28;20518;-77
2022/02/28 05:31:29;;;;;;;4.20;3.30;;;4.70;1.00;;;;;;5086425;28;20533;-79
2022/02/28 05:33:57;;;;;;;5.33;4.03;;;4.50;1.00;;;;;;5081891;28;20502;-76
2022/02/28 05:36:25;;;;;;;8.13;4.60;;;4.50;1.00;;;;;;5082743;28;20442;-75
2022/02/28 05:38:54;;;;;;;6.27;3.93;;;4.50;1.00;;;;;;5083717;28;20460;-75
2022/02/28 05:41:22;;;;;;;6.00;4.13;;;4.50;1.00;;;;;;5079258;28;20465;-75
2022/02/28 05:43:50;;;;;;;4.55;3.90;;;4.40;1.00;;;;;;5084205;28;20565;-76
2022/02/28 05:46:18;;;;;;;5.50;3.70;;;4.30;1.00;;;;;;5078426;28;20196;-74
2022/02/28 05:48:48;;;;;;;6.50;3.92;;;4.30;1.00;;;;;;5085994;28;21151;-77
2022/02/28 05:51:17;;;;;;;8.40;4.63;;;4.30;1.00;;;;;;5073748;28;20969;-76
2022/02/28 05:53:45;;;;;;;5.03;4.10;;;4.30;1.00;;;;;;5079591;28;20291;-76
2022/02/28 05:56:13;;;;;;;6.25;3.55;;;4.30;1.00;;;;;;5073945;28;20587;-77
2022/02/28 05:58:41;;;;;;;5.17;4.63;;;4.40;1.00;;;;;;5076734;28;20190;-79
2022/02/28 06:01:12;;;;;;;4.80;4.13;;;4.40;1.00;;;;;;5080782;28;20454;-77
2022/02/28 06:03:40;;;;;;;4.82;4.30;;;4.60;1.00;;;;;;5083015;28;20270;-77
2022/02/28 06:06:10;;;;;;;5.80;4.10;;;4.60;1.00;;;;;;5075695;28;20211;-77
2022/02/28 06:08:39;;;;;;;7.87;4.00;;;4.70;1.00;;;;;;5081033;28;20460;-76
2022/02/28 06:11:07;;;;;;;5.50;4.30;;;4.60;1.00;;;;;;5077932;28;20458;-77
2022/02/28 06:13:35;;;;;;;8.53;4.30;;;4.90;1.00;;;;;;5076153;28;20195;-76
2022/02/28 06:16:04;;;;;;;8.03;4.93;;;4.70;1.00;;;;;;5070032;28;20443;-77
2022/02/28 06:18:32;;;;;;;8.23;5.17;;;4.60;1.00;;;;;;5079577;28;20450;-78
2022/02/28 06:21:00;;;;;;;12.80;5.60;;;4.60;1.00;;;;;;5077638;28;20465;-79
2022/02/28 06:23:30;;;;;;;5.63;4.72;;;4.60;1.00;;;;;;5072274;28;20483;-79
2022/02/28 06:25:58;;;;;;;6.57;4.82;;;5.00;1.00;;;;;;5081167;28;20200;-79
2022/02/28 06:28:31;;;;;;;7.20;4.55;;;5.00;1.00;;;;;;5073935;28;20458;-80
2022/02/28 06:30:59;;;;;;;7.47;4.90;;;4.50;1.00;;;;;;5075850;28;20192;-80
2022/02/28 06:33:28;;;;;;;5.70;4.70;;;4.40;1.00;;;;;;5079958;28;20283;-80
2022/02/28 06:35:56;;;;;;;7.97;4.47;;;4.50;1.00;;;;;;5079785;28;20463;-79
2022/02/28 06:38:26;;;;;;;5.90;4.90;;;4.50;1.00;;;;;;5077342;28;20450;-80
2022/02/28 06:40:55;;;;;;;8.85;5.40;;;4.60;1.00;;;;;;5079552;28;20215;-79
2022/02/28 06:43:26;;;;;;;6.50;4.60;;;4.60;1.00;;;;;;5080186;28;21181;-78
2022/02/28 06:45:55;;;;;;;10.45;6.65;;;4.60;1.00;;;;;;5079173;28;20526;-77
2022/02/28 06:48:23;;;;;;;5.67;4.50;;;4.90;1.00;;;;;;5079590;28;20255;-78
2022/02/28 06:50:52;;;;;;;8.00;4.53;;;4.50;1.00;;;;;;5080525;28;20454;-80
2022/02/28 06:53:22;;;;;;;6.37;4.67;;;4.40;1.00;;;;;;5082930;28;20852;-79
2022/02/28 06:55:52;;;;;;;7.10;4.40;;;4.70;1.00;;;;;;5081854;28;20455;-79
2022/02/28 06:58:22;;;;;;;8.53;6.37;;;4.60;1.00;;;;;;5078268;28;20461;-79
2022/02/28 07:00:51;;;;;;;8.07;5.57;;;4.50;1.00;;;;;;5080301;28;20443;-76
2022/02/28 07:03:21;;;;;;;9.82;4.68;;;4.50;1.00;;;;;;5085567;28;20805;-77
2022/02/28 07:05:52;;;;;;;9.53;5.70;;;4.60;1.00;;;;;;5078634;28;20645;-78
2022/02/28 07:08:21;;;;;;;10.82;7.38;;;4.70;1.00;;;;;;5072912;28;20499;-77
2022/02/28 07:10:51;;;;;;;10.52;7.00;;;4.70;1.00;;;;;;5076202;28;20568;-79
2022/02/28 07:13:20;;;;;;;7.75;5.95;;;4.70;1.00;;;;;;5079052;28;20200;-80
2022/02/28 07:15:50;;;;;;;8.15;5.50;;;4.70;1.00;;;;;;5086355;28;20257;-79
2022/02/28 07:18:18;;;;;;;7.93;4.93;;;4.80;1.00;;;;;;5088665;28;20196;-79
2022/02/28 07:20:46;;;;;;;7.00;5.23;;;4.90;1.00;;;;;;5088598;28;20192;-79
2022/02/28 07:23:15;;;;;;;6.93;5.63;;;5.00;1.00;;;;;;5088248;28;20469;-79
2022/02/28 07:25:44;;;;;;;11.27;7.80;;;5.20;1.00;;;;;;5086858;28;20496;-79
2022/02/28 07:28:12;;;;;;;7.97;5.72;;;5.30;1.00;;;;;;5082997;28;20197;-79
2022/02/28 07:30:41;;;;;;;6.47;5.77;;;5.40;1.00;;;;;;5083307;28;20200;-76
2022/02/28 07:33:10;;;;;;;8.13;4.85;;;5.30;1.00;;;;;;5082962;28;20450;-78
2022/02/28 07:35:38;;;;;;;9.00;5.33;;;5.30;1.00;;;;;;5086176;28;20251;-80
2022/02/28 07:38:07;;;;;;;10.63;6.70;;;5.30;1.00;;;;;;5088619;28;21071;-79
2022/02/28 07:40:35;;;;;;;7.00;5.27;;;5.20;1.00;;;;;;5088788;28;20461;-78
2022/02/28 07:43:03;;;;;;;9.40;5.07;;;5.20;1.00;;;;;;5080357;28;20556;-79
2022/02/28 07:45:32;;;;;;;6.47;5.20;;;5.40;1.00;;;;;;5081965;28;20992;-79
2022/02/28 07:48:01;;;;;;;5.87;4.50;;;5.50;1.00;;;;;;5081602;28;20481;-79
2022/02/28 07:50:31;;;;;;;6.90;5.20;;;5.70;1.00;;;;;;5084734;28;20497;-79
2022/02/28 07:52:59;;;;;;;5.53;4.33;;;5.90;1.00;;;;;;5088052;28;20449;-79
2022/02/28 07:55:28;;;;;;;6.30;5.07;;;6.00;1.00;;;;;;5085279;28;20490;-79
2022/02/28 07:57:56;;;;;;;8.43;4.83;;;6.10;1.00;;;;;;5083364;28;20447;-79
2022/02/28 08:00:25;;;;;;;5.20;4.67;;;6.30;1.00;;;;;;5083924;28;20450;-78
2022/02/28 08:02:53;;;;;;;7.90;4.33;;;6.70;1.00;;;;;;5084141;28;20474;-79
2022/02/28 08:05:22;;;;;;;8.67;4.40;;;6.70;1.00;;;;;;5087941;28;20564;-79
2022/02/28 08:07:51;;;;;;;9.37;5.27;;;6.90;1.00;;;;;;5083384;28;20518;-79
2022/02/28 08:10:20;;;;;;;5.80;3.87;;;7.10;1.00;;;;;;5091190;28;20806;-79
2022/02/28 08:12:48;;;;;;;7.87;4.80;;;7.40;1.00;;;;;;5084204;28;20440;-80
2022/02/28 08:15:17;;;;;;;5.80;4.93;;;7.60;1.00;;;;;;5089997;28;20465;-80
2022/02/28 08:17:47;;;;;;;9.23;5.10;;;7.80;1.00;;;;;;5084721;28;20457;-79
2022/02/28 08:20:15;;;;;;;6.33;4.30;;;7.90;1.00;;;;;;5090527;28;20459;-79
2022/02/28 08:22:43;;;;;;;7.90;5.10;;;8.00;1.00;;;;;;5088372;28;20682;-79
2022/02/28 08:25:17;;;;;;;8.63;5.00;;;8.10;1.00;;;;;;5072688;28;20476;-80
2022/02/28 08:27:46;;;;;;;6.33;4.50;;;8.50;1.00;;;;;;5085934;28;20824;-78
2022/02/28 08:30:14;;;;;;;6.70;5.40;;;8.40;1.00;;;;;;5079006;28;20449;-80
2022/02/28 08:32:43;;;;;;;5.20;4.53;;;8.50;1.00;;;;;;5079388;28;20480;-80
2022/02/28 08:35:17;;;;;;;7.63;4.30;;;8.70;1.00;;;;;;5083385;28;20494;-80
2022/02/28 08:37:45;;;;;;;8.03;6.13;;;8.80;1.00;;;;;;5080816;28;20586;-79
2022/02/28 08:40:14;;;;;;;5.20;4.40;;;9.00;1.00;;;;;;5084984;28;20449;-79
2022/02/28 08:42:44;;;;;;;5.53;4.37;;;9.10;1.00;;;;;;5088510;28;20465;-79
2022/02/28 08:45:12;;;;;;;5.80;4.10;;;9.20;1.00;;;;;;5079620;28;20472;-79
2022/02/28 08:47:40;;;;;;;8.60;5.03;;;9.10;1.00;;;;;;5084055;28;20578;-79
2022/02/28 08:50:11;;;;;;;7.13;4.33;;;9.20;1.00;;;;;;5081865;28;20886;-79
2022/02/28 08:52:39;;;;;;;6.10;4.67;;;9.30;1.00;;;;;;5079485;28;20466;-80
2022/02/28 08:55:08;;;;;;;4.63;4.10;;;9.50;1.00;;;;;;5083776;28;20480;-80
2022/02/28 08:57:37;;;;;;;8.40;4.30;;;9.70;1.00;;;;;;5080571;28;20449;-82
2022/02/28 09:00:09;;;;;;;4.17;3.77;;;9.90;1.00;;;;;;5087438;28;20456;-81
2022/02/28 09:02:38;;;;;;;4.10;3.73;;;9.90;1.00;;;;;;5085831;28;20460;-80
2022/02/28 09:05:07;;;;;;;6.80;4.33;;;10.00;1.00;;;;;;5086290;28;20478;-80
2022/02/28 09:07:36;;;;;;;7.70;4.67;;;10.20;1.00;;;;;;5084991;28;20480;-81
2022/02/28 09:10:05;;;;;;;8.87;4.77;;;10.10;1.00;;;;;;5082235;28;20442;-80
2022/02/28 09:12:34;;;;;;;7.00;4.37;;;10.60;1.00;;;;;;5083001;28;20544;-80
2022/02/28 09:15:03;;;;;;;6.83;4.70;;;10.70;1.00;;;;;;5087999;28;20878;-81
2022/02/28 09:17:33;;;;;;;5.20;4.00;;;10.80;1.00;;;;;;5085404;28;20934;-80
2022/02/28 09:20:01;;;;;;;4.37;3.57;;;11.00;1.00;;;;;;5086255;28;20973;-79
2022/02/28 09:22:29;;;;;;;6.00;4.73;;;11.20;1.00;;;;;;5088107;28;20442;-81
2022/02/28 09:24:58;;;;;;;6.57;5.20;;;11.50;1.00;;;;;;5084590;28;20560;-80
2022/02/28 09:27:27;;;;;;;5.40;4.47;;;11.60;1.00;;;;;;5085698;28;20531;-83
2022/02/28 09:30:16;;;;;;;5.77;4.57;;;11.70;1.00;;;;;;5085716;28;20542;-83
2022/02/28 09:32:45;;;;;;;4.93;3.83;;;11.80;1.00;;;;;;5092007;28;20532;-80
2022/02/28 09:35:13;;;;;;;4.87;4.47;;;11.90;1.00;;;;;;5080394;28;20491;-80
2022/02/28 09:37:42;;;;;;;4.73;3.80;;;12.00;1.00;;;;;;5082371;28;20525;-80
2022/02/28 09:40:11;;;;;;;6.20;3.70;;;12.20;1.00;;;;;;5084828;28;20528;-80
2022/02/28 09:42:40;;;;;;;7.47;4.00;;;12.30;1.00;;;;;;5079854;28;20941;-81
2022/02/28 09:45:09;;;;;;;5.13;4.60;;;12.30;1.00;;;;;;5083445;28;20485;-82
2022/02/28 09:47:38;;;;;;;5.38;4.20;;;12.20;1.00;;;;;;5081616;28;20448;-81
2022/02/28 09:50:08;;;;;;;6.20;4.23;;;12.30;1.00;;;;;;5082115;28;20579;-81
2022/02/28 09:52:37;;;;;;;5.00;4.50;;;12.40;1.00;;;;;;5077107;28;20490;-80
2022/02/28 09:55:06;;;;;;;5.23;4.73;;;12.30;1.00;;;;;;5082372;28;20466;-80
2022/02/28 09:57:35;;;;;;;5.43;4.93;;;12.30;1.00;;;;;;5084786;28;20432;-80
2022/02/28 10:00:04;;;;;;;5.00;4.53;;;12.40;1.00;;;;;;5081364;28;20199;-80
2022/02/28 10:02:32;;;;;;;4.77;4.07;;;12.40;1.00;;;;;;5087840;28;20450;-81
2022/02/28 10:05:01;;;;;;;6.13;4.70;;;12.40;1.00;;;;;;5079948;28;20509;-80
2022/02/28 10:07:31;;;;;;;6.40;4.13;;;12.30;1.00;;;;;;5075162;28;20553;-80
2022/02/28 10:10:09;;;;;;;5.47;4.30;;;12.40;1.00;;;;;;5081777;28;20453;-80
2022/02/28 10:12:38;;;;;;;7.70;4.20;;;12.30;1.00;;;;;;5077189;28;20760;-80
2022/02/28 10:15:10;;;;;;;4.77;3.53;;;12.50;1.00;;;;;;5082312;28;20949;-80
2022/02/28 10:17:46;;;;;;;7.93;4.93;;;12.50;1.00;;;;;;5080777;28;20445;-79
2022/02/28 10:20:21;;;;;;;4.67;4.23;;;12.40;1.00;;;;;;5080075;28;20483;-81
2022/02/28 10:22:58;;;;;;;7.63;4.50;;;12.40;1.00;;;;;;5075861;28;20535;-80
2022/02/28 10:25:32;;;;;;;5.30;4.10;;;12.40;1.00;;;;;;5078455;28;20569;-80
2022/02/28 10:28:17;;;;;;;5.07;3.97;;;12.60;1.00;;;;;;5078190;28;20513;-81
2022/02/28 10:30:56;;;;;;;5.20;4.10;;;12.90;1.00;;;;;;5077717;28;20449;-81
2022/02/28 10:33:32;;;;;;;6.33;3.83;;;12.90;1.00;;;;;;5078781;28;20492;-82
2022/02/28 10:36:13;;;;;;;4.50;3.70;;;13.00;1.00;;;;;;5076415;28;20530;-81
2022/02/28 10:38:49;;;;;;;6.10;3.90;;;13.20;3.10;;;;;;5076748;28;20488;-84
2022/02/28 10:41:20;;;;;;;5.10;3.90;;;13.00;1.00;;;;;;5079823;28;20487;-81
2022/02/28 10:43:48;;;;;;;4.07;3.67;;;13.00;1.00;;;;;;5075242;28;20469;-81
2022/02/28 10:46:20;;;;;;;6.40;3.50;;;13.10;2.30;;;;;;5080428;28;20512;-82
2022/02/28 10:48:56;;;;;;;4.13;3.60;;;13.60;7.10;;;;;;5083221;28;20450;-81
2022/02/28 10:51:25;;;;;;;9.20;4.87;;;14.00;7.80;;;;;;5081716;28;20445;-80
2022/02/28 10:54:14;;;;;;;6.93;4.37;;;14.20;10.00;;;;;;5084307;28;20882;-81
2022/02/28 10:56:51;;;;;;;4.33;3.57;;;14.40;9.40;;;;;;5085265;28;20900;-81
2022/02/28 10:59:23;;;;;;;6.27;3.80;;;14.30;8.70;;;;;;5087630;28;20490;-85
2022/02/28 11:01:52;;;;;;;6.20;4.70;;;14.50;10.40;;;;;;5084624;28;20457;-84
2022/02/28 11:04:35;;;;;;;6.67;4.17;;;14.60;10.10;;;;;;5081710;28;20488;-83
2022/02/28 11:07:08;;;;;;;5.00;3.63;;;14.60;10.10;;;;;;5082038;28;20534;-79
2022/02/28 11:09:40;;;;;;;5.50;4.97;;;14.70;10.90;;;;;;5079676;28;22115;-81
2022/02/28 11:12:26;;;;;;;4.47;4.07;;;15.00;13.10;;;;;;5091446;28;20485;-80
2022/02/28 11:14:55;;;;;;;6.13;4.33;;;15.00;12.30;;;;;;5086925;28;20461;-81
2022/02/28 11:17:25;;;;;;;5.63;4.80;;;15.00;11.90;;;;;;5087044;28;20805;-81
2022/02/28 11:19:54;;;;;;;4.87;4.43;;;14.70;9.80;;;;;;5085196;28;20488;-80
2022/02/28 11:22:22;;;;;;;7.20;4.33;;;14.80;12.10;;;;;;5091175;28;20442;-80
2022/02/28 11:24:53;;;;;;;6.07;4.80;;;15.20;17.10;;;;;;5087871;28;20492;-83
2022/02/28 11:27:23;;;;;;;4.80;4.30;;;15.80;19.40;;;;;;5090652;28;20452;-81
2022/02/28 11:29:56;;;;;;;5.53;4.90;;;16.00;20.30;;;;;;5090305;28;20448;-81
2022/02/28 11:32:25;;;;;;;5.67;5.00;;;16.20;21.70;;;;;;5089833;28;20460;-80
2022/02/28 11:34:56;;;;;;;6.40;5.33;;;16.60;25.70;;;;;;5091782;28;20477;-80
2022/02/28 11:37:26;;;;;;;5.90;5.10;;;16.40;22.60;;;;;;5087160;28;20464;-81
2022/02/28 11:40:03;;;;;;;8.07;6.50;;;16.30;24.00;;;;;;5090041;28;20456;-80
2022/02/28 11:43:09;;;;;;;6.30;4.70;;;16.20;19.40;;;;;;5088873;28;20457;-81
2022/02/28 11:45:49;;;;;;;6.73;4.67;;;15.80;16.30;;;;;;5087463;28;20488;-83
2022/02/28 11:48:28;;;;;;;7.43;4.97;;;15.70;15.70;;;;;;5089791;28;20464;-84
2022/02/28 11:51:03;;;;;;;6.20;5.40;;;15.40;12.80;;;;;;5089174;28;20450;-79
2022/02/28 11:53:43;;;;;;;6.50;5.75;;;15.40;11.40;;;;;;5084547;28;21110;-79
2022/02/28 11:56:55;;;;;;;8.23;5.83;;;14.80;7.20;;;;;;5082005;28;20819;-80
2022/02/28 11:59:31;;;;;;;6.20;5.60;;;14.70;8.70;;;;;;5081743;28;20520;-83
2022/02/28 12:02:15;;;;;;;7.10;6.20;;;15.00;9.50;;;;;;5089328;28;20439;-82
2022/02/28 12:04:46;;;;;;;7.38;5.55;;;14.90;8.80;;;;;;5082811;28;20453;-81
2022/02/28 12:07:35;;;;;;;6.83;5.77;;;14.80;8.80;;;;;;5085260;28;20197;-82
2022/02/28 12:10:10;;;;;;;10.27;7.23;;;14.70;8.30;;;;;;5088487;28;20457;-79
2022/02/28 12:12:40;;;;;;;6.93;4.87;;;14.70;7.50;;;;;;5089576;28;21415;-79
2022/02/28 12:15:18;;;;;;;5.73;5.10;;;14.60;6.70;;;;;;5080482;28;20456;-81
2022/02/28 12:18:18;;;;;;;7.93;5.40;;;14.60;6.70;;;;;;5090985;28;20468;-81
2022/02/28 12:21:06;;;;;;;6.65;5.65;;;14.60;6.30;;;;;;5086721;28;20425;-81
2022/02/28 12:23:46;;;;;;;8.40;5.73;;;14.30;3.40;;;;;;5079824;28;20247;-81
2022/02/28 12:26:14;;;;;;;8.17;5.70;;;14.30;2.50;;;;;;5091768;28;20841;-81
2022/02/28 12:28:53;;;;;;;9.30;6.10;;;14.20;2.60;;;;;;5082704;28;21036;-82
2022/02/28 12:31:40;;;;;;;9.20;5.17;;;14.20;2.60;;;;;;5082623;28;20459;-84
2022/02/28 12:34:11;;;;;;;7.60;5.73;;;14.30;4.10;;;;;;5082861;28;20472;-82
2022/02/28 12:36:44;;;;;;;8.43;5.27;;;14.40;4.30;;;;;;5092944;28;20453;-82
2022/02/28 12:39:15;;;;;;;8.07;5.30;;;14.50;4.50;;;;;;5085991;28;20578;-81
2022/02/28 12:41:45;;;;;;;6.43;5.30;;;14.60;6.00;;;;;;5092478;28;20452;-81
2022/02/28 12:44:15;;;;;;;7.40;4.90;;;14.70;6.00;;;;;;5087078;28;20478;-80
2022/02/28 12:46:47;;;;;;;6.63;5.43;;;14.60;5.00;;;;;;5088071;28;20477;-81
2022/02/28 12:49:19;;;;;;;5.70;4.40;;;14.50;3.30;;;;;;5090289;28;20503;-80
2022/02/28 12:51:49;;;;;;;7.23;5.23;;;14.40;1.00;;;;;;5086053;28;20460;-78
2022/02/28 12:54:20;;;;;;;6.60;4.97;;;14.40;2.30;;;;;;5086106;28;21048;-82
2022/02/28 12:56:54;;;;;;;6.03;4.50;;;14.40;1.10;;;;;;5081987;28;20467;-80
2022/02/28 12:59:33;;;;;;;7.93;5.07;;;14.40;1.00;;;;;;5090543;28;21007;-81
2022/02/28 13:02:04;;;;;;;5.93;5.00;;;14.50;1.40;;;;;;5084763;28;20446;-81
2022/02/28 13:04:33;;;;;;;8.27;5.72;;;14.40;1.50;;;;;;5085406;28;20947;-80
2022/02/28 13:07:12;;;;;;;7.17;4.97;;;14.50;2.10;;;;;;5090293;28;20247;-79
2022/02/28 13:09:42;;;;;;;7.00;5.63;;;14.60;2.70;;;;;;5089561;28;20450;-77
2022/02/28 13:12:10;;;;;;;8.87;5.47;;;14.60;3.30;;;;;;5083936;28;20480;-78
2022/02/28 13:14:41;;;;;;;7.90;5.17;;;14.70;4.70;;;;;;5088381;28;20509;-77
2022/02/28 13:17:15;;;;;;;6.40;4.63;;;14.70;3.60;;;;;;5088413;28;20526;-79
2022/02/28 13:19:44;;;;;;;8.07;4.40;;;14.60;2.60;;;;;;5089808;28;20462;-78